Time;durP1;ratioP1;P1;durP2;ratioP2;P2;SDS_P1;SDS_P2;PMS_P1;PMS_P2;Temp;Humidity;BMP_temperature;BMP_pressure;BME280_temperature;BME280_humidity;BME280_pressure;Samples;Min_cycle;Max_cycle;Signal;HPM_P1;HPM_P2
2022/09/22 00:00:02;;;;;;;6.38;3.97;;;9.50;99.90;;;;;;3057454;19;20488;-77
2022/09/22 00:01:07;;;;;;;8.45;4.75;;;9.60;99.90;;;;;;3060348;19;20503;-76
2022/09/22 00:02:09;;;;;;;9.57;4.40;;;9.80;99.90;;;;;;3057490;19;20382;-76
2022/09/22 00:03:13;;;;;;;9.85;4.30;;;9.80;99.90;;;;;;3058908;19;20372;-77
2022/09/22 00:04:17;;;;;;;10.32;4.40;;;9.30;99.90;;;;;;3058168;19;20010;-76
2022/09/22 00:05:18;;;;;;;5.68;4.10;;;9.90;99.90;;;;;;3057225;19;20022;-77
2022/09/22 00:06:23;;;;;;;8.75;4.28;;;9.90;99.90;;;;;;3058792;19;20082;-75
2022/09/22 00:07:25;;;;;;;8.25;4.20;;;9.70;99.90;;;;;;3059414;19;20018;-77
2022/09/22 00:08:29;;;;;;;7.50;4.38;;;9.80;99.90;;;;;;3058136;19;20011;-77
2022/09/22 00:09:33;;;;;;;8.02;3.80;;;9.90;99.90;;;;;;3058622;19;20025;-77
2022/09/22 00:10:34;;;;;;;7.30;3.67;;;9.80;99.90;;;;;;3056126;19;20035;-78
2022/09/22 00:11:41;;;;;;;5.50;3.70;;;9.60;99.90;;;;;;3059074;19;20490;-77
2022/09/22 00:12:46;;;;;;;7.90;3.83;;;10.00;99.90;;;;;;3058400;19;20022;-77
2022/09/22 00:13:52;;;;;;;6.28;3.97;;;10.00;99.90;;;;;;3058543;19;20086;-77
2022/09/22 00:14:54;;;;;;;7.28;4.03;;;9.60;99.90;;;;;;3058148;19;20426;-76
2022/09/22 00:15:59;;;;;;;6.80;4.22;;;9.80;99.90;;;;;;3059235;19;20030;-77
2022/09/22 00:17:03;;;;;;;7.13;3.85;;;9.80;99.90;;;;;;3058075;19;20018;-77
2022/09/22 00:18:05;;;;;;;7.43;4.28;;;9.70;99.90;;;;;;3057629;19;20010;-77
2022/09/22 00:19:09;;;;;;;7.25;4.10;;;9.90;99.90;;;;;;3057835;19;20002;-77
2022/09/22 00:20:12;;;;;;;6.78;4.20;;;9.50;99.90;;;;;;3057914;19;20340;-77
2022/09/22 00:21:18;;;;;;;8.45;3.95;;;9.50;99.90;;;;;;3058923;19;20035;-77
2022/09/22 00:22:19;;;;;;;6.57;4.28;;;9.80;99.90;;;;;;3056984;19;20039;-77
2022/09/22 00:23:27;;;;;;;8.38;3.90;;;9.50;99.90;;;;;;3057516;19;20375;-77
2022/09/22 00:24:30;;;;;;;5.57;3.63;;;9.60;99.90;;;;;;3057244;19;20015;-77
2022/09/22 00:25:33;;;;;;;6.32;3.92;;;9.80;99.90;;;;;;3056266;19;20022;-79
2022/09/22 00:26:36;;;;;;;6.32;3.75;;;9.80;99.90;;;;;;3058247;19;20429;-77
2022/09/22 00:27:40;;;;;;;8.00;4.15;;;9.70;99.90;;;;;;3058308;19;20088;-76
2022/09/22 00:28:46;;;;;;;7.00;3.90;;;9.70;99.90;;;;;;3057433;19;20010;-77
2022/09/22 00:29:50;;;;;;;7.43;4.38;;;9.70;99.90;;;;;;3058170;19;20019;-77
2022/09/22 00:30:52;;;;;;;7.45;3.95;;;9.80;99.90;;;;;;3057639;19;20021;-76
2022/09/22 00:31:57;;;;;;;7.05;4.00;;;10.00;99.90;;;;;;3059676;19;20483;-77
2022/09/22 00:32:58;;;;;;;6.30;3.75;;;9.70;99.90;;;;;;3058607;19;20022;-77
2022/09/22 00:34:02;;;;;;;9.18;4.03;;;9.80;99.90;;;;;;3058176;19;20069;-77
2022/09/22 00:35:03;;;;;;;7.97;4.10;;;9.80;99.90;;;;;;3057492;19;20022;-77
2022/09/22 00:36:07;;;;;;;;;;;9.70;99.90;;;;;;3058738;19;20374;-77
2022/09/22 00:37:08;;;;;;;7.10;3.88;;;9.50;99.90;;;;;;3057601;19;19926;-77
2022/09/22 00:38:12;;;;;;;7.13;3.97;;;;;;;;;;3058687;19;20011;-77
2022/09/22 00:39:15;;;;;;;9.85;4.15;;;9.60;99.90;;;;;;3057676;19;20026;-77
2022/09/22 00:40:19;;;;;;;7.50;4.20;;;9.30;99.90;;;;;;3060420;19;20014;-77
2022/09/22 00:41:22;;;;;;;7.57;3.97;;;9.90;99.90;;;;;;3062168;19;20025;-77
2022/09/22 00:42:26;;;;;;;8.43;4.38;;;9.60;99.90;;;;;;3061451;19;20029;-77
2022/09/22 00:43:29;;;;;;;6.90;4.38;;;9.90;99.90;;;;;;3062199;19;20475;-77
2022/09/22 00:44:41;;;;;;;6.93;4.32;;;9.90;99.90;;;;;;3061862;19;20078;-77
2022/09/22 00:45:43;;;;;;;7.15;4.22;;;9.40;99.90;;;;;;3061667;19;20006;-77
2022/09/22 00:46:52;;;;;;;7.82;4.20;;;9.80;99.90;;;;;;3061097;19;20380;-78
2022/09/22 00:47:56;;;;;;;6.00;4.07;;;9.80;99.90;;;;;;3060525;19;20018;-76
2022/09/22 00:49:02;;;;;;;8.55;4.32;;;9.60;99.90;;;;;;3062464;19;20373;-77
2022/09/22 00:50:11;;;;;;;6.95;4.20;;;9.60;99.90;;;;;;3060879;19;20007;-77
2022/09/22 00:51:17;;;;;;;6.43;4.05;;;9.70;99.90;;;;;;3062393;19;20010;-77
2022/09/22 00:52:25;;;;;;;7.13;4.15;;;9.60;99.90;;;;;;3061669;19;20031;-78
2022/09/22 00:53:28;;;;;;;9.05;4.07;;;9.30;99.90;;;;;;3061124;19;20015;-78
2022/09/22 00:54:32;;;;;;;7.93;4.25;;;9.50;99.90;;;;;;3060810;19;20505;-77
2022/09/22 00:55:38;;;;;;;9.02;4.68;;;9.90;99.90;;;;;;3061143;19;19999;-77
2022/09/22 00:56:49;;;;;;;6.13;4.35;;;9.80;99.90;;;;;;3061020;19;19999;-77
2022/09/22 00:57:52;;;;;;;7.05;4.35;;;9.60;99.90;;;;;;3060775;19;20000;-77
2022/09/22 00:59:00;;;;;;;7.72;4.65;;;9.20;99.90;;;;;;3060921;19;20037;-77
2022/09/22 01:00:08;;;;;;;7.63;4.25;;;9.30;99.90;;;;;;3060722;19;20018;-78
2022/09/22 01:01:14;;;;;;;6.07;3.83;;;9.50;99.90;;;;;;3062625;19;20032;-77
2022/09/22 01:02:15;;;;;;;7.30;4.88;;;9.40;99.90;;;;;;3060911;19;20018;-77
2022/09/22 01:03:22;;;;;;;6.30;4.40;;;9.50;99.90;;;;;;3061024;19;20005;-77
2022/09/22 01:04:23;;;;;;;6.40;4.28;;;9.50;99.90;;;;;;3060547;19;20026;-77
2022/09/22 01:05:28;;;;;;;9.30;4.30;;;9.10;99.90;;;;;;3060082;19;20014;-77
2022/09/22 01:06:30;;;;;;;9.80;4.50;;;9.60;99.90;;;;;;3060490;19;20014;-78
2022/09/22 01:07:34;;;;;;;6.85;4.18;;;9.50;99.90;;;;;;3060764;19;20070;-77
2022/09/22 01:08:36;;;;;;;8.43;4.68;;;9.50;99.90;;;;;;3060543;19;20011;-77
2022/09/22 01:09:40;;;;;;;8.75;4.70;;;9.30;99.90;;;;;;3060022;19;20003;-77
2022/09/22 01:10:42;;;;;;;7.30;4.95;;;9.50;99.90;;;;;;3061791;19;20017;-78
2022/09/22 01:11:45;;;;;;;8.30;4.45;;;9.30;99.90;;;;;;3060092;19;20002;-77
2022/09/22 01:12:58;;;;;;;11.65;5.30;;;9.30;99.90;;;;;;3060381;19;20025;-77
2022/09/22 01:14:11;;;;;;;7.78;4.47;;;9.30;99.90;;;;;;3059646;19;20015;-76
2022/09/22 01:15:28;;;;;;;10.15;4.95;;;9.00;99.90;;;;;;3060571;19;20709;-77
2022/09/22 01:16:43;;;;;;;9.00;5.13;;;9.40;99.90;;;;;;3060139;19;20020;-77
2022/09/22 01:17:57;;;;;;;7.55;4.90;;;9.60;99.90;;;;;;3060045;19;20014;-77
2022/09/22 01:19:37;;;;;;;10.50;4.75;;;9.40;99.90;;;;;;3060409;19;20007;-77
2022/09/22 01:21:16;;;;;;;7.40;4.40;;;9.40;99.90;;;;;;3058615;19;20039;-77
2022/09/22 01:22:34;;;;;;;8.55;4.95;;;9.30;99.90;;;;;;3059092;19;20018;-77
2022/09/22 01:24:11;;;;;;;7.25;4.30;;;9.10;99.90;;;;;;3060313;19;20392;-75
2022/09/22 01:25:44;;;;;;;7.70;4.70;;;9.10;99.90;;;;;;3061749;19;20471;-77
2022/09/22 01:27:18;;;;;;;8.35;4.40;;;9.20;99.90;;;;;;3060742;19;20007;-78
2022/09/22 01:28:44;;;;;;;8.20;4.45;;;9.10;99.90;;;;;;3062191;19;20023;-77
2022/09/22 01:30:19;;;;;;;6.38;4.20;;;9.00;99.90;;;;;;3060978;19;20070;-76
2022/09/22 01:31:31;;;;;;;5.70;4.32;;;9.10;99.90;;;;;;3059687;19;20357;-77
2022/09/22 01:32:40;;;;;;;6.43;4.40;;;9.20;99.90;;;;;;3058459;19;20375;-77
2022/09/22 01:33:50;;;;;;;8.00;4.82;;;8.90;99.90;;;;;;3059744;19;20041;-77
2022/09/22 01:34:57;;;;;;;8.77;5.03;;;9.00;99.90;;;;;;3060429;19;20021;-77
2022/09/22 01:36:13;;;;;;;9.65;4.70;;;9.00;99.90;;;;;;3060204;19;20022;-77
2022/09/22 01:37:23;;;;;;;10.18;5.25;;;9.00;99.90;;;;;;3060262;19;20031;-77
2022/09/22 01:38:33;;;;;;;10.00;5.30;;;9.00;99.90;;;;;;3061008;19;20514;-77
2022/09/22 01:39:39;;;;;;;8.07;4.95;;;8.90;99.90;;;;;;3058918;19;20014;-78
2022/09/22 01:40:48;;;;;;;8.95;5.13;;;9.00;99.90;;;;;;3061230;19;20392;-77
2022/09/22 01:41:57;;;;;;;8.02;5.10;;;9.10;99.90;;;;;;3058536;19;20011;-76
2022/09/22 01:43:07;;;;;;;6.50;4.70;;;9.20;99.90;;;;;;3060573;19;20007;-76
2022/09/22 01:44:18;;;;;;;10.13;4.80;;;8.90;99.90;;;;;;3059948;19;20017;-76
2022/09/22 01:45:25;;;;;;;8.75;5.30;;;9.10;99.90;;;;;;3061270;19;20025;-77
2022/09/22 01:46:36;;;;;;;8.27;5.82;;;9.10;99.90;;;;;;3060053;19;20015;-76
2022/09/22 01:47:42;;;;;;;7.00;5.45;;;9.00;99.90;;;;;;3059887;19;20021;-75
2022/09/22 01:48:50;;;;;;;6.60;5.50;;;9.10;99.90;;;;;;3060449;19;20044;-77
2022/09/22 01:49:53;;;;;;;6.38;5.20;;;9.00;99.90;;;;;;3060191;19;20003;-77
2022/09/22 01:51:03;;;;;;;8.48;5.30;;;8.90;99.90;;;;;;3059562;19;20018;-77
2022/09/22 01:52:12;;;;;;;8.63;5.53;;;9.10;99.90;;;;;;3059539;19;20017;-76
2022/09/22 01:53:17;;;;;;;8.80;5.22;;;9.10;99.90;;;;;;3060120;19;20507;-78
2022/09/22 01:54:25;;;;;;;11.23;5.78;;;9.00;99.90;;;;;;3059374;19;20426;-78
2022/09/22 01:55:30;;;;;;;10.15;5.68;;;9.00;99.90;;;;;;3060604;19;20028;-78
2022/09/22 01:56:37;;;;;;;9.30;5.65;;;9.30;99.90;;;;;;3060482;19;20089;-78
2022/09/22 01:57:45;;;;;;;9.10;5.57;;;8.70;99.90;;;;;;3060361;19;20365;-78
2022/09/22 01:58:52;;;;;;;10.50;5.57;;;9.80;99.90;;;;;;3060916;19;20010;-78
2022/09/22 02:00:00;;;;;;;11.38;5.43;;;9.00;99.90;;;;;;3061299;19;20015;-78
2022/09/22 02:01:11;;;;;;;16.25;5.65;;;9.30;99.90;;;;;;3059425;19;20011;-78
2022/09/22 02:02:19;;;;;;;11.50;5.60;;;9.40;99.90;;;;;;3059614;19;20037;-77
2022/09/22 02:03:28;;;;;;;10.50;5.40;;;9.00;99.90;;;;;;3059970;19;20030;-77
2022/09/22 02:04:34;;;;;;;8.70;5.20;;;8.70;99.90;;;;;;3060876;19;20018;-78
2022/09/22 02:05:42;;;;;;;9.80;5.28;;;9.10;99.90;;;;;;3059050;19;20073;-78
2022/09/22 02:06:51;;;;;;;7.93;5.82;;;8.80;99.90;;;;;;3059664;19;20019;-78
2022/09/22 02:07:57;;;;;;;6.43;5.20;;;9.20;99.90;;;;;;3059475;19;20471;-78
2022/09/22 02:09:04;;;;;;;8.65;5.43;;;9.00;99.90;;;;;;3059900;19;20375;-78
2022/09/22 02:10:11;;;;;;;8.73;5.13;;;8.90;99.90;;;;;;3059718;19;20002;-78
2022/09/22 02:11:15;;;;;;;7.90;4.80;;;8.90;99.90;;;;;;3058501;19;20364;-78
2022/09/22 02:12:19;;;;;;;7.30;5.03;;;8.90;99.90;;;;;;3059181;19;20014;-79
2022/09/22 02:13:21;;;;;;;9.57;5.30;;;;;;;;;;3058616;19;20675;-77
2022/09/22 02:14:26;;;;;;;8.05;5.80;;;9.00;99.90;;;;;;3057688;19;20014;-78
2022/09/22 02:17:04;;;;;;;7.57;4.60;;;8.90;99.90;;;;;;3057963;19;20021;-78
2022/09/22 02:18:09;;;;;;;8.85;5.40;;;8.90;99.90;;;;;;3057652;19;20034;-77
2022/09/22 02:19:18;;;;;;;9.00;5.10;;;9.20;99.90;;;;;;3058210;19;20015;-78
2022/09/22 02:20:20;;;;;;;8.85;5.00;;;9.20;99.90;;;;;;3059407;19;20017;-78
2022/09/22 02:21:27;;;;;;;8.20;4.90;;;8.90;99.90;;;;;;3059581;19;20479;-78
2022/09/22 02:22:31;;;;;;;9.52;5.30;;;9.00;99.90;;;;;;3058285;19;20058;-78
2022/09/22 02:23:35;;;;;;;7.78;5.18;;;8.80;99.90;;;;;;3059660;19;20031;-78
2022/09/22 02:24:39;;;;;;;8.88;4.95;;;9.00;99.90;;;;;;3059764;19;20014;-78
2022/09/22 02:25:44;;;;;;;8.05;5.05;;;8.70;99.90;;;;;;3059474;19;20376;-78
2022/09/22 02:26:46;;;;;;;10.18;5.85;;;8.70;99.90;;;;;;3059896;19;20021;-79
2022/09/22 02:27:52;;;;;;;9.32;4.97;;;9.10;99.90;;;;;;3058948;19;20030;-78
2022/09/22 02:28:58;;;;;;;7.18;5.15;;;9.30;99.90;;;;;;3059756;19;20017;-78
2022/09/22 02:30:07;;;;;;;8.82;5.18;;;8.90;99.90;;;;;;3059445;19;20022;-77
2022/09/22 02:31:09;;;;;;;6.78;4.80;;;9.00;99.90;;;;;;3061317;19;20034;-78
2022/09/22 02:32:18;;;;;;;12.98;5.78;;;9.10;99.90;;;;;;3059400;19;20022;-78
2022/09/22 02:33:22;;;;;;;8.35;4.90;;;9.00;99.90;;;;;;3057434;19;20023;-78
2022/09/22 02:34:27;;;;;;;9.13;5.18;;;9.20;99.90;;;;;;3059504;19;20430;-78
2022/09/22 02:35:31;;;;;;;9.23;5.63;;;9.10;99.90;;;;;;3058932;19;20018;-78
2022/09/22 02:36:46;;;;;;;9.75;5.50;;;8.90;99.90;;;;;;3060043;19;20472;-78
2022/09/22 02:37:52;;;;;;;6.20;4.55;;;9.00;99.90;;;;;;3060076;19;20018;-78
2022/09/22 02:39:02;;;;;;;7.05;5.20;;;9.00;99.90;;;;;;3059676;19;20475;-77
2022/09/22 02:40:08;;;;;;;8.77;5.30;;;9.00;99.90;;;;;;3058931;19;20023;-77
2022/09/22 02:41:19;;;;;;;8.13;5.18;;;8.70;99.90;;;;;;3059653;19;20002;-78
2022/09/22 02:42:28;;;;;;;7.10;5.25;;;9.00;99.90;;;;;;3060845;19;20371;-78
2022/09/22 02:43:37;;;;;;;7.72;5.25;;;8.90;99.90;;;;;;3059727;19;20011;-78
2022/09/22 02:44:45;;;;;;;7.40;4.95;;;8.90;99.90;;;;;;3059245;19;20034;-78
2022/09/22 02:45:55;;;;;;;8.02;5.63;;;8.90;99.90;;;;;;3059780;19;20372;-77
2022/09/22 02:47:01;;;;;;;6.55;5.13;;;8.90;99.90;;;;;;3058353;19;20011;-78
2022/09/22 02:48:13;;;;;;;7.05;4.97;;;9.10;99.90;;;;;;3059023;19;20006;-77
2022/09/22 02:49:19;;;;;;;7.38;5.07;;;9.00;99.90;;;;;;3059247;19;20017;-77
2022/09/22 02:50:24;;;;;;;9.30;5.07;;;8.70;99.90;;;;;;3060703;19;20006;-79
2022/09/22 02:51:30;;;;;;;7.55;5.32;;;8.90;99.90;;;;;;3059182;19;20011;-77
2022/09/22 02:52:31;;;;;;;8.30;5.40;;;8.90;99.90;;;;;;3058978;19;20076;-77
2022/09/22 02:53:36;;;;;;;6.88;5.65;;;8.90;99.90;;;;;;3059541;19;20014;-78
2022/09/22 02:54:38;;;;;;;7.90;5.40;;;8.90;99.90;;;;;;3060679;19;20006;-78
2022/09/22 02:55:42;;;;;;;12.15;5.55;;;9.20;99.90;;;;;;3059097;19;20350;-78
2022/09/22 02:56:44;;;;;;;9.90;5.20;;;8.90;99.90;;;;;;3058976;19;20022;-78
2022/09/22 02:57:48;;;;;;;8.45;5.72;;;;;;;;;;3059567;19;20070;-78
2022/09/22 02:58:52;;;;;;;12.38;5.68;;;8.90;99.90;;;;;;3059069;19;20490;-78
2022/09/22 02:59:56;;;;;;;9.38;5.50;;;8.90;99.90;;;;;;3058578;19;20033;-78
2022/09/22 03:00:57;;;;;;;7.45;4.90;;;8.60;99.90;;;;;;3058436;19;20010;-78
2022/09/22 03:02:01;;;;;;;13.32;5.68;;;8.90;99.90;;;;;;3059363;19;20022;-76
2022/09/22 03:03:05;;;;;;;8.10;5.10;;;9.10;99.90;;;;;;3058591;19;20022;-78
2022/09/22 03:04:09;;;;;;;10.45;5.15;;;8.90;99.90;;;;;;3059357;19;20487;-78
2022/09/22 03:05:13;;;;;;;11.95;5.80;;;9.20;99.90;;;;;;3059184;19;20021;-78
2022/09/22 03:06:15;;;;;;;14.95;5.80;;;8.90;99.90;;;;;;3059069;19;20010;-79
2022/09/22 03:07:19;;;;;;;10.18;5.60;;;8.90;99.90;;;;;;3060499;19;20010;-78
2022/09/22 03:08:20;;;;;;;8.43;5.60;;;8.70;99.90;;;;;;3059297;19;20002;-77
2022/09/22 03:09:24;;;;;;;10.05;5.70;;;9.10;99.90;;;;;;3058974;19;20507;-78
2022/09/22 03:10:25;;;;;;;8.73;5.68;;;8.80;99.90;;;;;;3059299;19;20025;-78
2022/09/22 03:11:29;;;;;;;7.80;5.82;;;;;;;;;;3059013;19;20391;-79
2022/09/22 03:12:30;;;;;;;8.90;5.50;;;8.80;99.90;;;;;;3059297;19;20074;-78
2022/09/22 03:13:34;;;;;;;8.85;5.88;;;8.70;99.90;;;;;;3058587;19;20011;-78
2022/09/22 03:14:36;;;;;;;9.20;5.80;;;8.80;99.90;;;;;;3059092;19;20033;-78
2022/09/22 03:15:39;;;;;;;10.13;5.50;;;8.80;99.90;;;;;;3059702;19;20433;-78
2022/09/22 03:16:41;;;;;;;7.13;5.68;;;8.70;99.90;;;;;;3059259;19;20103;-77
2022/09/22 03:17:46;;;;;;;10.05;5.72;;;8.90;99.90;;;;;;3057042;19;20078;-78
2022/09/22 03:18:52;;;;;;;6.75;5.35;;;8.70;99.90;;;;;;3059169;19;20018;-78
2022/09/22 03:19:53;;;;;;;11.05;6.13;;;8.60;99.90;;;;;;3058743;19;20010;-78
2022/09/22 03:20:57;;;;;;;9.02;5.47;;;8.70;99.90;;;;;;3056930;19;20035;-77
2022/09/22 03:21:58;;;;;;;9.07;5.75;;;8.80;99.90;;;;;;3058846;19;20011;-78
2022/09/22 03:23:02;;;;;;;12.60;5.82;;;8.40;99.90;;;;;;3059809;19;20042;-79
2022/09/22 03:24:04;;;;;;;11.38;5.70;;;8.70;99.90;;;;;;3058848;19;20011;-77
2022/09/22 03:25:10;;;;;;;8.25;5.75;;;8.60;99.90;;;;;;3059052;19;20014;-78
2022/09/22 03:26:11;;;;;;;8.82;5.43;;;8.40;99.90;;;;;;3060269;19;20021;-78
2022/09/22 03:27:15;;;;;;;10.48;5.82;;;8.60;99.90;;;;;;3058793;19;20078;-76
2022/09/22 03:28:17;;;;;;;8.90;6.05;;;8.60;99.90;;;;;;3059011;19;20032;-77
2022/09/22 03:29:21;;;;;;;8.80;5.85;;;9.00;99.90;;;;;;3058879;19;20371;-77
2022/09/22 03:30:22;;;;;;;8.50;6.10;;;8.70;99.90;;;;;;3059043;19;20014;-78
2022/09/22 03:31:26;;;;;;;13.93;5.90;;;;;;;;;;3058730;19;20010;-78
2022/09/22 03:32:28;;;;;;;9.63;5.93;;;8.80;99.90;;;;;;3059032;19;20088;-77
2022/09/22 03:33:32;;;;;;;10.70;6.10;;;8.70;99.90;;;;;;3057878;19;20006;-79
2022/09/22 03:34:36;;;;;;;9.98;5.82;;;8.50;99.90;;;;;;3059369;19;20487;-78
2022/09/22 03:35:40;;;;;;;10.25;6.07;;;8.60;99.90;;;;;;3058078;19;20483;-78
2022/09/22 03:36:44;;;;;;;10.25;5.93;;;8.60;99.90;;;;;;3058018;19;20070;-78
2022/09/22 03:37:45;;;;;;;10.50;5.63;;;8.70;99.90;;;;;;3058418;19;20498;-78
2022/09/22 03:38:50;;;;;;;7.72;5.68;;;8.80;99.90;;;;;;3059546;19;20024;-78
2022/09/22 03:39:52;;;;;;;10.60;5.53;;;8.50;99.90;;;;;;3059136;19;20044;-78
2022/09/22 03:40:57;;;;;;;8.90;5.93;;;8.80;99.90;;;;;;3058155;19;20386;-78
2022/09/22 03:41:58;;;;;;;10.43;5.75;;;8.40;99.90;;;;;;3057236;19;20018;-79
2022/09/22 03:43:02;;;;;;;8.00;5.70;;;8.40;99.90;;;;;;3058625;19;20110;-78
2022/09/22 03:44:04;;;;;;;11.15;5.90;;;8.50;99.90;;;;;;3059005;19;20542;-77
2022/09/22 03:45:11;;;;;;;7.55;5.50;;;8.30;99.90;;;;;;3058916;19;20033;-79
2022/09/22 03:46:13;;;;;;;10.80;5.82;;;8.20;99.90;;;;;;3059960;19;20027;-78
2022/09/22 03:47:16;;;;;;;7.07;5.53;;;8.20;99.90;;;;;;3058464;19;20006;-78
2022/09/22 03:48:18;;;;;;;9.60;5.90;;;;;;;;;;3058694;19;20014;-78
2022/09/22 03:49:22;;;;;;;7.80;5.72;;;8.30;99.90;;;;;;3058614;19;20021;-78
2022/09/22 03:50:27;;;;;;;7.93;5.88;;;8.50;99.90;;;;;;3058496;19;20010;-78
2022/09/22 03:51:33;;;;;;;7.88;6.00;;;8.50;99.90;;;;;;3058702;19;20006;-77
2022/09/22 03:52:34;;;;;;;9.50;6.28;;;8.50;99.90;;;;;;3058217;19;20015;-79
2022/09/22 03:53:38;;;;;;;9.00;5.90;;;8.50;99.90;;;;;;3057986;19;20011;-77
2022/09/22 03:54:39;;;;;;;8.35;5.60;;;8.50;99.90;;;;;;3058495;19;20023;-78
2022/09/22 03:55:43;;;;;;;8.98;6.55;;;8.40;99.90;;;;;;3058672;19;20018;-78
2022/09/22 03:56:44;;;;;;;9.88;5.35;;;8.60;99.90;;;;;;3059011;19;20006;-78
2022/09/22 03:57:48;;;;;;;8.77;5.85;;;8.70;99.90;;;;;;3056993;19;20368;-78
2022/09/22 07:20:05;;;;;;;14.90;9.88;;;9.00;99.90;;;;;;3053264;19;20970;-75
2022/09/22 07:21:19;;;;;;;13.88;9.32;;;9.10;99.90;;;;;;3059391;19;20505;-75
2022/09/22 07:22:26;;;;;;;15.18;9.30;;;9.30;99.90;;;;;;3055248;19;20031;-76
2022/09/22 07:23:34;;;;;;;14.95;10.30;;;8.90;99.90;;;;;;3059515;19;20018;-75
2022/09/22 07:24:38;;;;;;;15.30;9.93;;;8.90;99.90;;;;;;3060293;19;20014;-75
2022/09/22 07:25:40;;;;;;;11.90;9.35;;;9.10;99.90;;;;;;3060139;19;20574;-75
2022/09/22 07:26:45;;;;;;;11.85;9.65;;;9.00;99.90;;;;;;3058723;19;20025;-75
2022/09/22 07:27:47;;;;;;;13.52;9.52;;;9.10;99.90;;;;;;3057552;19;20578;-75
2022/09/22 07:28:55;;;;;;;14.63;10.07;;;9.50;99.90;;;;;;3058954;19;20018;-75
2022/09/22 07:29:58;;;;;;;12.35;9.63;;;9.40;99.90;;;;;;3058717;19;20037;-75
2022/09/22 07:31:04;;;;;;;11.05;9.27;;;9.00;99.90;;;;;;3058664;19;19998;-75
2022/09/22 07:32:09;;;;;;;15.27;10.27;;;9.30;99.90;;;;;;3058631;19;20006;-76
2022/09/22 07:33:10;;;;;;;14.65;9.48;;;9.30;99.90;;;;;;3058881;19;20471;-76
2022/09/22 07:34:15;;;;;;;13.77;9.88;;;9.40;99.90;;;;;;3059034;19;20019;-76
2022/09/22 07:35:19;;;;;;;11.13;9.52;;;9.40;99.90;;;;;;3059029;19;20077;-76
2022/09/22 07:36:25;;;;;;;13.32;10.43;;;9.40;99.90;;;;;;3058386;19;20037;-75
2022/09/22 07:37:32;;;;;;;14.35;10.27;;;9.50;99.90;;;;;;3058628;19;20014;-76
2022/09/22 07:38:35;;;;;;;13.75;9.85;;;9.90;99.90;;;;;;3058646;19;20014;-75
2022/09/22 07:39:39;;;;;;;18.55;10.02;;;;;;;;;;3058702;19;20006;-75
2022/09/22 07:40:54;;;;;;;11.82;9.63;;;9.70;99.90;;;;;;3058619;19;20014;-76
2022/09/22 07:41:58;;;;;;;13.95;9.52;;;9.50;99.90;;;;;;3058585;19;20019;-76
2022/09/22 07:42:59;;;;;;;12.52;9.40;;;9.40;99.90;;;;;;3058420;19;20470;-76
2022/09/22 07:45:11;;;;;;;12.68;9.32;;;;;;;;;;3058301;19;20038;-75
2022/09/22 07:45:25;;;;;;;11.82;9.40;;;9.70;99.90;;;;;;3057374;19;20387;-76
2022/09/22 07:46:29;;;;;;;13.52;9.70;;;9.50;99.90;;;;;;3059892;19;20018;-76
2022/09/22 07:48:50;;;;;;;11.98;9.38;;;9.80;99.90;;;;;;3056879;19;20467;-76
2022/09/22 07:49:51;;;;;;;13.07;9.95;;;9.70;99.90;;;;;;3058695;19;20007;-76
2022/09/22 07:51:00;;;;;;;12.05;9.10;;;9.80;99.90;;;;;;3058417;19;20020;-76
2022/09/22 07:52:04;;;;;;;12.88;9.52;;;9.80;99.90;;;;;;3058594;19;20007;-76
2022/09/22 07:53:06;;;;;;;13.20;9.57;;;10.00;99.90;;;;;;3058209;19;20356;-76
2022/09/22 07:54:10;;;;;;;13.23;9.18;;;9.80;99.90;;;;;;3058435;19;20037;-76
2022/09/22 07:55:11;;;;;;;15.95;9.00;;;10.10;99.90;;;;;;3058375;19;20370;-76
2022/09/22 07:56:16;;;;;;;13.27;9.02;;;10.10;99.90;;;;;;3058651;19;20003;-77
2022/09/22 07:57:18;;;;;;;14.05;9.40;;;10.00;99.90;;;;;;3058404;19;20002;-76
2022/09/22 07:58:22;;;;;;;12.32;9.38;;;10.00;99.90;;;;;;3058359;19;20002;-77
2022/09/22 07:59:27;;;;;;;13.20;9.07;;;10.00;99.90;;;;;;3058324;19;20014;-77
2022/09/22 08:00:31;;;;;;;12.13;8.98;;;9.90;99.90;;;;;;3058420;19;20010;-77
2022/09/22 08:01:35;;;;;;;13.63;9.35;;;10.00;99.90;;;;;;3057615;19;20040;-76
2022/09/22 08:02:36;;;;;;;12.10;9.00;;;10.30;99.90;;;;;;3058455;19;20007;-76
2022/09/22 08:03:41;;;;;;;13.90;9.10;;;;;;;;;;3058215;19;20003;-77
2022/09/22 08:04:42;;;;;;;13.90;8.82;;;10.50;99.90;;;;;;3058965;19;20030;-76
2022/09/22 08:05:48;;;;;;;16.48;8.88;;;10.10;99.90;;;;;;3058135;19;20015;-76
2022/09/22 08:06:55;;;;;;;10.98;8.65;;;10.30;99.90;;;;;;3057211;19;20023;-76
2022/09/22 08:08:02;;;;;;;14.77;8.60;;;10.50;99.90;;;;;;3057925;19;20066;-77
2022/09/22 08:09:07;;;;;;;12.93;8.95;;;10.40;99.90;;;;;;3058149;19;20078;-77
2022/09/22 08:10:11;;;;;;;13.40;9.55;;;10.40;99.90;;;;;;3058441;19;20002;-77
2022/09/22 08:11:16;;;;;;;10.82;8.55;;;10.80;99.90;;;;;;3058186;19;20332;-76
2022/09/22 08:12:18;;;;;;;14.10;9.32;;;10.60;99.90;;;;;;3058256;19;20017;-77
2022/09/22 08:13:23;;;;;;;11.85;9.18;;;10.50;99.90;;;;;;3058339;19;20010;-77
2022/09/22 08:14:29;;;;;;;13.15;8.40;;;10.50;99.90;;;;;;3057089;19;20497;-77
2022/09/22 08:15:31;;;;;;;11.55;8.70;;;10.50;99.90;;;;;;3058010;19;20014;-76
2022/09/22 08:16:38;;;;;;;12.00;9.05;;;10.60;99.90;;;;;;3060059;19;20502;-76
2022/09/22 08:17:42;;;;;;;12.02;8.27;;;10.70;99.90;;;;;;3057811;19;20467;-75
2022/09/22 08:18:48;;;;;;;12.25;8.30;;;10.50;99.90;;;;;;3057991;19;20007;-75
2022/09/22 08:19:52;;;;;;;13.55;8.75;;;10.60;99.90;;;;;;3057512;19;20018;-73
2022/09/22 08:20:53;;;;;;;11.65;8.13;;;10.60;99.90;;;;;;3058070;19;20002;-74
2022/09/22 08:21:59;;;;;;;11.30;7.57;;;10.80;99.90;;;;;;3057857;19;20483;-76
2022/09/22 08:23:04;;;;;;;11.85;7.72;;;10.70;99.90;;;;;;3058212;19;20088;-76
2022/09/22 08:24:10;;;;;;;14.63;7.90;;;10.70;99.90;;;;;;3057894;19;20019;-76
2022/09/22 08:25:11;;;;;;;10.98;8.20;;;11.00;99.90;;;;;;3058449;19;20377;-77
2022/09/22 08:26:15;;;;;;;12.23;8.10;;;10.60;99.90;;;;;;3057851;19;20407;-76
2022/09/22 08:27:17;;;;;;;11.02;8.55;;;;;;;;;;3058173;19;20007;-76
2022/09/22 08:28:21;;;;;;;13.40;8.40;;;11.30;99.90;;;;;;3057832;19;20019;-76
2022/09/22 08:29:23;;;;;;;10.95;8.02;;;11.00;99.90;;;;;;3058302;19;20015;-77
2022/09/22 08:30:27;;;;;;;12.45;7.95;;;11.30;99.90;;;;;;3057903;19;20355;-77
2022/09/22 08:31:29;;;;;;;12.02;7.93;;;11.00;99.90;;;;;;3057099;19;20010;-77
2022/09/22 08:32:34;;;;;;;11.70;7.28;;;11.00;99.90;;;;;;3057200;19;20010;-76
2022/09/22 08:33:36;;;;;;;12.48;7.70;;;10.90;99.90;;;;;;3058052;19;20097;-76
2022/09/22 08:34:41;;;;;;;9.65;7.47;;;10.90;99.90;;;;;;3054952;19;20129;-77
2022/09/22 08:35:53;;;;;;;11.15;8.32;;;11.30;99.90;;;;;;3057173;19;20029;-76
2022/09/22 08:37:00;;;;;;;10.13;7.43;;;11.30;99.90;;;;;;3057150;19;20011;-76
2022/09/22 08:38:01;;;;;;;9.50;7.47;;;11.20;99.90;;;;;;3057926;19;19999;-76
2022/09/22 08:39:06;;;;;;;10.38;7.80;;;11.30;99.90;;;;;;3057802;19;20011;-75
2022/09/22 08:40:13;;;;;;;14.48;7.93;;;11.40;99.90;;;;;;3056970;19;20015;-74
2022/09/22 08:41:23;;;;;;;9.68;7.30;;;11.40;99.90;;;;;;3056159;19;19999;-75
2022/09/22 08:42:27;;;;;;;13.38;7.45;;;11.50;99.90;;;;;;3058213;19;20073;-77
2022/09/22 08:43:29;;;;;;;9.95;7.22;;;11.50;99.90;;;;;;3057898;19;20374;-74
2022/09/22 08:44:38;;;;;;;16.33;7.53;;;11.80;99.90;;;;;;3057590;19;20015;-74
2022/09/22 08:45:45;;;;;;;11.32;7.75;;;11.60;99.90;;;;;;3056244;19;20071;-75
2022/09/22 08:46:47;;;;;;;10.13;8.00;;;12.00;99.90;;;;;;3057543;19;20022;-75
2022/09/22 08:51:59;;;;;;;9.70;6.47;;;11.80;99.90;;;;;;3057955;19;19926;-74
2022/09/22 08:53:05;;;;;;;8.73;7.00;;;12.20;99.90;;;;;;3057354;19;20029;-75
2022/09/22 08:54:08;;;;;;;9.00;6.97;;;11.80;99.90;;;;;;3057741;19;20026;-75
2022/09/22 08:55:20;;;;;;;11.90;6.60;;;11.80;99.90;;;;;;3057419;19;20041;-75
2022/09/22 08:56:29;;;;;;;11.45;6.72;;;12.30;99.90;;;;;;3057500;19;20010;-75
2022/09/22 08:57:55;;;;;;;7.80;6.18;;;12.00;99.90;;;;;;3057278;19;20011;-75
2022/09/22 08:59:07;;;;;;;11.77;6.47;;;12.10;99.90;;;;;;3056571;19;20117;-75
2022/09/22 09:00:13;;;;;;;9.38;7.15;;;12.30;99.90;;;;;;3057616;19;20019;-75
2022/09/22 09:01:30;;;;;;;11.25;7.22;;;12.20;99.90;;;;;;3060201;19;20014;-75
2022/09/22 09:02:43;;;;;;;10.98;7.15;;;12.40;99.90;;;;;;3060450;19;20014;-76
2022/09/22 09:03:53;;;;;;;;;;;12.40;99.90;;;;;;3061020;19;20010;-76
2022/09/22 09:05:13;;;;;;;12.23;6.93;;;12.40;99.90;;;;;;3059082;19;19915;-76
2022/09/22 09:06:22;;;;;;;9.60;6.60;;;12.50;99.90;;;;;;3061002;19;20015;-76
2022/09/22 09:07:32;;;;;;;7.93;6.05;;;12.50;99.90;;;;;;3060383;19;20009;-75
2022/09/22 09:09:18;;;;;;;8.00;6.57;;;12.60;99.90;;;;;;3060738;19;20015;-76
2022/09/22 09:10:39;;;;;;;10.82;6.32;;;12.60;99.90;;;;;;3061333;19;20363;-76
2022/09/22 09:12:07;;;;;;;9.52;6.22;;;12.70;99.90;;;;;;3060475;19;20503;-75
2022/09/22 09:13:27;;;;;;;8.00;6.25;;;12.70;99.90;;;;;;3060283;19;20468;-76
2022/09/22 09:14:52;;;;;;;10.82;6.22;;;12.70;99.90;;;;;;3060902;19;20040;-75
2022/09/22 09:16:07;;;;;;;8.25;6.00;;;12.90;99.90;;;;;;3060365;19;20455;-76